Time;durP1;ratioP1;P1;durP2;ratioP2;P2;SDS_P1;SDS_P2;PMS_P1;PMS_P2;Temp;Humidity;BMP_temperature;BMP_pressure;BME280_temperature;BME280_humidity;BME280_pressure;Samples;Min_cycle;Max_cycle;Signal;HPM_P1;HPM_P2
2021/07/08 00:01:44;;;;;;;2.90;2.60;;;17.30;99.90;;;;;;5051493;28;20212;-73
2021/07/08 00:04:10;;;;;;;4.17;3.03;;;17.20;99.90;;;;;;5057209;28;20188;-72
2021/07/08 00:06:36;;;;;;;3.03;2.80;;;17.20;99.90;;;;;;5066187;28;20244;-72
2021/07/08 00:09:05;;;;;;;4.60;2.80;;;17.20;99.90;;;;;;5070767;28;20208;-73
2021/07/08 00:11:30;;;;;;;3.50;2.60;;;17.20;99.90;;;;;;5060965;28;20264;-73
2021/07/08 00:13:56;;;;;;;4.60;2.70;;;17.10;99.90;;;;;;5052020;28;20292;-72
2021/07/08 00:16:21;;;;;;;4.13;2.73;;;17.10;99.90;;;;;;5034170;28;20541;-72
2021/07/08 00:18:47;;;;;;;6.07;3.40;;;17.10;99.90;;;;;;5052587;28;20641;-72
2021/07/08 00:21:12;;;;;;;5.30;3.00;;;17.00;99.90;;;;;;5051544;28;20170;-72
2021/07/08 00:23:38;;;;;;;5.63;3.47;;;17.00;99.90;;;;;;5053669;28;20186;-72
2021/07/08 00:26:03;;;;;;;5.37;3.40;;;17.00;99.90;;;;;;5051629;28;20301;-72
2021/07/08 00:28:29;;;;;;;6.23;3.27;;;16.90;99.90;;;;;;5051658;28;20175;-73
2021/07/08 00:30:55;;;;;;;6.03;4.00;;;16.90;99.90;;;;;;5050985;28;20173;-72
2021/07/08 00:33:22;;;;;;;5.53;4.37;;;16.90;99.90;;;;;;5058768;28;20213;-73
2021/07/08 00:35:49;;;;;;;5.50;3.50;;;16.90;99.90;;;;;;5071643;28;20186;-74
2021/07/08 00:38:15;;;;;;;6.57;3.80;;;16.80;99.90;;;;;;5070151;28;20199;-73
2021/07/08 00:40:40;;;;;;;4.03;3.63;;;16.80;99.90;;;;;;5071323;28;20173;-73
2021/07/08 00:43:07;;;;;;;4.20;3.67;;;16.80;99.90;;;;;;5070047;28;20215;-72
2021/07/08 00:45:33;;;;;;;6.73;3.97;;;16.80;99.90;;;;;;5059296;28;20197;-73
2021/07/08 00:47:59;;;;;;;7.10;4.00;;;16.70;99.90;;;;;;5052984;28;20186;-72
2021/07/08 00:50:32;;;;;;;5.30;4.40;;;16.70;99.90;;;;;;5067639;28;20187;-71
2021/07/08 00:52:57;;;;;;;7.97;3.87;;;16.70;99.90;;;;;;5071248;28;20201;-71
2021/07/08 00:55:23;;;;;;;4.50;4.00;;;16.60;99.90;;;;;;5071649;28;20276;-72
2021/07/08 00:57:52;;;;;;;7.90;4.37;;;16.70;99.90;;;;;;5067992;28;20181;-72
2021/07/08 01:00:29;;;;;;;5.30;4.00;;;16.60;99.90;;;;;;5075192;28;20458;-72
2021/07/08 01:02:55;;;;;;;5.00;4.47;;;16.70;99.90;;;;;;5062453;28;20177;-72
2021/07/08 01:05:24;;;;;;;8.57;4.73;;;16.70;99.90;;;;;;5056622;28;20201;-73
2021/07/08 01:07:51;;;;;;;4.97;4.33;;;16.60;99.90;;;;;;5059798;28;20169;-73
2021/07/08 01:10:16;;;;;;;5.97;4.30;;;16.60;99.90;;;;;;5069634;28;20559;-72
2021/07/08 01:12:42;;;;;;;6.53;4.50;;;16.70;99.90;;;;;;5076126;28;20205;-73
2021/07/08 01:15:10;;;;;;;7.50;3.93;;;16.70;99.90;;;;;;5080637;28;20189;-72
2021/07/08 01:17:37;;;;;;;6.73;4.33;;;16.70;99.90;;;;;;5064632;28;20191;-72
2021/07/08 01:20:04;;;;;;;4.90;4.40;;;16.70;99.90;;;;;;5054214;28;20686;-73
2021/07/08 01:22:30;;;;;;;5.63;5.10;;;16.80;99.90;;;;;;5050555;28;20209;-72
2021/07/08 01:24:56;;;;;;;8.20;5.00;;;16.70;99.90;;;;;;5074050;22;20697;-73
2021/07/08 01:27:21;;;;;;;6.93;5.00;;;16.70;99.90;;;;;;5029630;28;20198;-71
2021/07/08 01:29:47;;;;;;;8.73;5.30;;;16.70;99.90;;;;;;5037848;28;20187;-71
2021/07/08 01:32:12;;;;;;;10.37;5.77;;;16.80;99.90;;;;;;5030246;28;20218;-71
2021/07/08 01:34:38;;;;;;;8.07;6.20;;;16.70;99.90;;;;;;5012426;28;20284;-71
2021/07/08 01:37:03;;;;;;;9.13;5.87;;;16.70;99.90;;;;;;5034748;28;20206;-71
2021/07/08 01:39:29;;;;;;;9.43;5.70;;;16.70;99.90;;;;;;5030035;28;20300;-71
2021/07/08 01:41:55;;;;;;;8.50;6.70;;;16.60;99.90;;;;;;5034330;28;20227;-71
2021/07/08 01:57:56;;;;;;;7.60;5.53;;;16.40;99.90;;;;;;5026417;28;20216;-71
2021/07/08 02:00:23;;;;;;;11.27;6.50;;;16.40;99.90;;;;;;5027884;28;20700;-71
2021/07/08 02:02:52;;;;;;;10.83;6.63;;;16.40;99.90;;;;;;5048718;28;20185;-71
2021/07/08 02:05:18;;;;;;;7.17;6.43;;;16.40;99.90;;;;;;5045589;28;20201;-71
2021/07/08 02:07:44;;;;;;;9.73;6.17;;;16.30;99.90;;;;;;5030651;28;20650;-70
2021/07/08 02:10:11;;;;;;;8.87;6.97;;;16.30;99.90;;;;;;5033610;28;20240;-71
2021/07/08 02:12:38;;;;;;;11.37;6.63;;;16.20;99.90;;;;;;5049388;28;20222;-70
2021/07/08 02:15:05;;;;;;;8.17;6.57;;;16.20;99.90;;;;;;5050264;28;20319;-71
2021/07/08 02:17:31;;;;;;;10.37;6.93;;;16.20;99.90;;;;;;5043520;28;20185;-71
2021/07/08 02:19:57;;;;;;;10.63;6.73;;;16.10;99.90;;;;;;5048404;28;20173;-71
2021/07/08 02:22:22;;;;;;;9.57;6.00;;;16.10;99.90;;;;;;5031077;28;20184;-71
2021/07/08 02:24:48;;;;;;;10.10;6.53;;;16.10;99.90;;;;;;5036190;28;20276;-71
2021/07/08 02:27:14;;;;;;;9.80;6.57;;;16.10;99.90;;;;;;5044802;28;20224;-70
2021/07/08 02:29:39;;;;;;;9.53;6.40;;;16.10;99.90;;;;;;5044086;28;20226;-71
2021/07/08 02:32:07;;;;;;;9.73;6.43;;;16.10;99.90;;;;;;5033390;28;20564;-71
2021/07/08 02:34:33;;;;;;;13.37;6.60;;;16.10;99.90;;;;;;5048333;28;20439;-71
2021/07/08 02:36:58;;;;;;;9.33;6.47;;;16.10;99.90;;;;;;5053945;28;20260;-71
2021/07/08 02:39:24;;;;;;;9.67;6.53;;;16.10;99.90;;;;;;5047730;28;20673;-71
2021/07/08 02:41:49;;;;;;;9.33;6.13;;;16.10;99.90;;;;;;5050756;28;20178;-71
2021/07/08 02:44:15;;;;;;;7.43;5.60;;;16.10;99.90;;;;;;5052338;28;20178;-71
2021/07/08 02:46:40;;;;;;;10.77;7.07;;;16.10;99.90;;;;;;5051228;28;20482;-71
2021/07/08 02:49:06;;;;;;;9.20;6.13;;;16.20;99.90;;;;;;5043148;28;20596;-71
2021/07/08 02:51:31;;;;;;;9.63;6.13;;;16.20;99.90;;;;;;5052136;28;20262;-71
2021/07/08 02:53:57;;;;;;;7.90;6.03;;;16.20;99.90;;;;;;5043894;28;20236;-71
2021/07/08 02:56:22;;;;;;;7.10;6.03;;;16.30;99.90;;;;;;5052540;28;20204;-71
2021/07/08 02:58:48;;;;;;;7.93;6.63;;;16.30;99.90;;;;;;5053967;28;20207;-71
2021/07/08 03:01:13;;;;;;;7.97;6.53;;;16.30;99.90;;;;;;5032791;28;20166;-71
2021/07/08 03:03:39;;;;;;;7.40;6.70;;;16.30;99.90;;;;;;5027294;28;20190;-71
2021/07/08 03:06:04;;;;;;;10.03;6.93;;;16.40;99.90;;;;;;5053690;28;20558;-72
2021/07/08 03:08:30;;;;;;;10.63;7.70;;;16.40;99.90;;;;;;5051037;28;20177;-72
2021/07/08 03:10:55;;;;;;;8.10;7.17;;;16.40;99.90;;;;;;5052590;28;20251;-72
2021/07/08 03:13:21;;;;;;;9.13;7.63;;;16.40;99.90;;;;;;5051594;28;20201;-72
2021/07/08 03:15:46;;;;;;;12.03;7.53;;;16.40;99.90;;;;;;5050041;28;20191;-71
2021/07/08 03:18:12;;;;;;;13.07;8.17;;;16.50;99.90;;;;;;5052038;28;20597;-71
2021/07/08 03:20:38;;;;;;;11.17;7.80;;;16.50;99.90;;;;;;5050760;28;20219;-71
2021/07/08 03:23:04;;;;;;;9.67;7.80;;;16.50;99.90;;;;;;5052973;28;20189;-72
2021/07/08 03:25:30;;;;;;;9.07;8.00;;;16.60;99.90;;;;;;5051713;28;20237;-70
2021/07/08 03:27:57;;;;;;;9.90;7.47;;;16.60;99.90;;;;;;5031171;28;20237;-71
2021/07/08 03:30:23;;;;;;;9.43;7.60;;;16.60;99.90;;;;;;5048099;28;20209;-71
2021/07/08 03:32:51;;;;;;;8.63;7.40;;;16.60;99.90;;;;;;5047680;28;20693;-71
2021/07/08 03:35:17;;;;;;;11.77;7.90;;;16.60;99.90;;;;;;5037735;28;20554;-71
2021/07/08 03:37:43;;;;;;;8.57;7.43;;;16.70;99.90;;;;;;5051606;28;20170;-70
2021/07/08 03:40:12;;;;;;;8.20;7.30;;;16.70;99.90;;;;;;5049735;28;20210;-71
2021/07/08 03:42:38;;;;;;;13.23;7.80;;;16.80;99.90;;;;;;5052325;28;20188;-71
2021/07/08 03:45:05;;;;;;;8.07;7.27;;;17.10;99.90;;;;;;5047906;28;20547;-71
2021/07/08 03:47:31;;;;;;;8.77;6.83;;;17.40;99.90;;;;;;5051549;28;20206;-71
2021/07/08 03:49:57;;;;;;;8.00;6.40;;;18.00;99.90;;;;;;5052925;28;20267;-71
2021/07/08 03:52:22;;;;;;;12.27;7.07;;;18.10;99.90;;;;;;5049660;28;20190;-71
2021/07/08 03:54:48;;;;;;;9.87;6.60;;;17.90;99.90;;;;;;5051675;28;20174;-71
2021/07/08 03:57:13;;;;;;;7.77;6.57;;;17.70;99.90;;;;;;5034579;28;20209;-71
2021/07/08 03:59:39;;;;;;;9.77;7.43;;;18.00;99.90;;;;;;5040021;28;20170;-71
2021/07/08 04:02:05;;;;;;;7.07;6.37;;;18.50;99.90;;;;;;5047158;28;20571;-71
2021/07/08 04:04:31;;;;;;;10.67;6.90;;;18.60;99.90;;;;;;5050383;28;20193;-70
2021/07/08 04:06:56;;;;;;;7.57;6.63;;;18.50;99.90;;;;;;5050125;28;20198;-71
2021/07/08 04:09:22;;;;;;;9.63;6.73;;;18.70;99.90;;;;;;5049691;28;20188;-70
2021/07/08 04:11:47;;;;;;;9.13;6.80;;;19.10;99.90;;;;;;5051738;28;20602;-71
2021/07/08 04:14:13;;;;;;;9.10;6.30;;;19.50;99.90;;;;;;5052458;28;20276;-70
2021/07/08 04:16:39;;;;;;;8.40;6.23;;;20.20;99.90;;;;;;5052474;28;20197;-71
2021/07/08 04:19:04;;;;;;;8.53;6.37;;;20.20;99.90;;;;;;5050764;28;20185;-72
2021/07/08 04:21:30;;;;;;;10.73;6.50;;;19.90;99.90;;;;;;5051537;28;20223;-72
2021/07/08 04:23:56;;;;;;;9.03;6.33;;;19.50;99.90;;;;;;5043059;28;20205;-72
2021/07/08 04:26:22;;;;;;;10.30;6.80;;;19.10;99.90;;;;;;5050814;28;20212;-72
2021/07/08 04:28:47;;;;;;;9.83;7.00;;;19.00;99.90;;;;;;5052122;28;20627;-72
2021/07/08 04:31:16;;;;;;;11.47;7.60;;;18.90;99.90;;;;;;5051322;28;20256;-71
2021/07/08 04:33:43;;;;;;;9.80;7.27;;;18.80;99.90;;;;;;5041955;28;20286;-71
2021/07/08 04:36:11;;;;;;;6.80;6.17;;;18.70;99.90;;;;;;5038342;28;20432;-71
2021/07/08 04:38:37;;;;;;;10.20;6.30;;;18.70;99.90;;;;;;5048880;28;20261;-71
2021/07/08 04:41:03;;;;;;;6.87;6.17;;;18.90;99.90;;;;;;5051110;28;20277;-71
2021/07/08 04:43:28;;;;;;;9.60;6.67;;;18.90;99.90;;;;;;5051493;28;20174;-71
2021/07/08 04:45:55;;;;;;;8.77;5.93;;;19.00;99.90;;;;;;5050586;28;20981;-71
2021/07/08 04:48:21;;;;;;;8.33;6.30;;;19.10;99.90;;;;;;5033029;28;20603;-71
2021/07/08 04:50:46;;;;;;;7.73;6.63;;;19.10;99.90;;;;;;5028615;28;20182;-70
2021/07/08 04:53:18;;;;;;;9.53;8.00;;;19.10;99.90;;;;;;5031307;28;20223;-71
2021/07/08 04:55:44;;;;;;;6.43;5.50;;;19.00;99.90;;;;;;5031166;28;20198;-70
2021/07/08 04:58:10;;;;;;;10.10;6.17;;;19.00;99.90;;;;;;5032359;28;20206;-71
2021/07/08 05:00:36;;;;;;;10.27;5.97;;;19.10;99.90;;;;;;5031628;28;20663;-71
2021/07/08 05:03:06;;;;;;;8.90;6.43;;;19.10;99.90;;;;;;5032007;28;20179;-71
2021/07/08 05:05:32;;;;;;;7.50;5.67;;;19.10;99.90;;;;;;5013915;28;20212;-71
2021/07/08 05:07:57;;;;;;;9.00;6.30;;;19.10;99.90;;;;;;5031865;28;20178;-71
2021/07/08 05:10:23;;;;;;;8.90;6.10;;;19.00;99.90;;;;;;5031177;28;20179;-71
2021/07/08 05:12:49;;;;;;;8.73;6.10;;;19.00;99.90;;;;;;5031462;28;20202;-70
2021/07/08 05:15:15;;;;;;;6.83;6.10;;;19.00;99.90;;;;;;5031446;28;20269;-71
2021/07/08 05:17:43;;;;;;;7.27;6.53;;;19.10;99.90;;;;;;5032856;28;20182;-71
2021/07/08 05:20:09;;;;;;;10.73;5.93;;;19.10;99.90;;;;;;5033508;28;20232;-71
2021/07/08 05:22:36;;;;;;;8.60;6.07;;;19.10;99.90;;;;;;5030583;28;20174;-70
2021/07/08 05:25:02;;;;;;;11.70;6.20;;;19.20;99.90;;;;;;5031407;28;20611;-70
2021/07/08 05:27:30;;;;;;;9.43;6.33;;;19.20;99.90;;;;;;5031330;28;20170;-70
2021/07/08 05:29:56;;;;;;;8.73;6.03;;;19.40;99.90;;;;;;5031318;28;20185;-70
2021/07/08 05:32:22;;;;;;;7.17;6.47;;;19.40;99.90;;;;;;5030853;28;20633;-70
2021/07/08 05:34:47;;;;;;;7.50;6.63;;;19.40;99.90;;;;;;5030879;28;20170;-70
2021/07/08 05:37:13;;;;;;;9.73;6.27;;;19.30;99.90;;;;;;5013004;28;20195;-70
2021/07/08 05:39:38;;;;;;;9.03;7.03;;;19.30;99.90;;;;;;5030859;28;20211;-70
2021/07/08 05:42:04;;;;;;;7.33;6.20;;;19.30;99.90;;;;;;5029981;28;20175;-70
2021/07/08 05:44:31;;;;;;;8.50;6.90;;;19.50;99.90;;;;;;5030634;28;20248;-71
2021/07/08 05:46:56;;;;;;;7.73;6.13;;;19.70;99.90;;;;;;5030663;28;20195;-70
2021/07/08 05:49:22;;;;;;;6.63;5.37;;;19.90;99.90;;;;;;5033710;28;20189;-71
2021/07/08 05:51:48;;;;;;;13.10;6.07;;;20.00;99.90;;;;;;5032009;28;20202;-71
2021/07/08 05:54:13;;;;;;;9.27;5.53;;;20.00;99.90;;;;;;5029697;28;20206;-71
2021/07/08 05:56:38;;;;;;;9.90;5.73;;;20.00;99.90;;;;;;5030496;28;20645;-71
2021/07/08 05:59:04;;;;;;;6.97;5.53;;;20.20;99.90;;;;;;5030771;28;20487;-72
2021/07/08 06:01:30;;;;;;;6.00;5.40;;;20.50;99.90;;;;;;5011977;28;20179;-72
2021/07/08 06:03:55;;;;;;;9.03;5.83;;;21.00;99.90;;;;;;5030433;28;20181;-71
2021/07/08 06:06:20;;;;;;;7.00;5.17;;;21.30;99.90;;;;;;5030381;28;20205;-72
2021/07/08 06:08:46;;;;;;;9.27;5.97;;;21.40;99.90;;;;;;5030380;28;20187;-72
2021/07/08 06:11:13;;;;;;;7.23;5.27;;;21.70;99.90;;;;;;5029862;28;20198;-72
2021/07/08 06:13:39;;;;;;;5.60;5.03;;;22.00;99.90;;;;;;5030482;28;20247;-70
2021/07/08 06:16:05;;;;;;;6.60;5.00;;;22.10;99.90;;;;;;5030539;28;20289;-72
2021/07/08 06:18:30;;;;;;;8.10;5.07;;;22.20;99.90;;;;;;5030590;28;20200;-72
2021/07/08 06:20:56;;;;;;;6.70;4.45;;;22.40;99.90;;;;;;5029759;28;20173;-72
2021/07/08 06:23:23;;;;;;;9.45;4.57;;;22.60;99.90;;;;;;5030438;28;20179;-72
2021/07/08 06:25:49;;;;;;;6.20;4.38;;;22.70;99.90;;;;;;5030146;28;20327;-72
2021/07/08 06:28:16;;;;;;;8.98;4.50;;;22.70;99.90;;;;;;5030337;28;20319;-72
2021/07/08 06:30:42;;;;;;;6.78;4.80;;;23.10;99.90;;;;;;5030077;28;20190;-70
2021/07/08 06:33:08;;;;;;;4.93;4.35;;;23.20;99.90;;;;;;5030093;28;20269;-71
2021/07/08 06:35:33;;;;;;;6.03;4.30;;;23.20;99.90;;;;;;5030177;28;20442;-71
2021/07/08 06:37:59;;;;;;;7.32;4.60;;;23.20;99.90;;;;;;5030542;28;20196;-71
2021/07/08 06:40:24;;;;;;;6.63;4.47;;;23.20;99.90;;;;;;5029826;28;20167;-71
2021/07/08 06:42:50;;;;;;;6.15;4.35;;;23.10;99.90;;;;;;5028190;28;20185;-71
2021/07/08 06:45:17;;;;;;;5.60;3.97;;;23.00;99.90;;;;;;5027992;28;20213;-71
2021/07/08 06:47:45;;;;;;;5.05;4.03;;;22.90;99.90;;;;;;5030067;28;20220;-72
2021/07/08 06:50:11;;;;;;;5.38;3.95;;;23.00;99.90;;;;;;5030059;28;20191;-71
2021/07/08 06:52:37;;;;;;;4.55;3.50;;;23.10;99.90;;;;;;5029368;28;20583;-71
2021/07/08 06:55:04;;;;;;;7.60;4.30;;;23.00;99.90;;;;;;5031062;28;20180;-71
2021/07/08 06:57:30;;;;;;;4.53;4.00;;;23.00;99.90;;;;;;5030299;28;20176;-71
2021/07/08 06:59:55;;;;;;;4.75;3.60;;;23.00;99.90;;;;;;5030064;28;20189;-71
2021/07/08 07:02:21;;;;;;;4.00;3.10;;;23.10;99.90;;;;;;5027742;28;20176;-71
2021/07/08 07:04:46;;;;;;;4.68;3.67;;;23.20;99.90;;;;;;5029999;28;20172;-71
2021/07/08 07:07:15;;;;;;;3.70;3.35;;;23.30;99.90;;;;;;5033419;28;20206;-71
2021/07/08 07:09:40;;;;;;;4.60;3.42;;;23.50;99.90;;;;;;5030610;28;20190;-71
2021/07/08 07:12:06;;;;;;;3.55;3.20;;;23.20;99.90;;;;;;5020703;28;20556;-72
2021/07/08 07:14:32;;;;;;;6.82;3.47;;;23.20;99.90;;;;;;5034508;28;20213;-71
2021/07/08 07:16:57;;;;;;;4.68;3.45;;;23.10;99.90;;;;;;5039291;28;20201;-71
2021/07/08 07:19:23;;;;;;;5.53;3.22;;;23.10;99.90;;;;;;5037621;28;20681;-70
2021/07/08 07:21:48;;;;;;;3.55;2.85;;;23.10;99.90;;;;;;5027456;28;20661;-70
2021/07/08 07:24:14;;;;;;;5.50;3.40;;;23.10;99.90;;;;;;5036144;28;20255;-71
2021/07/08 07:26:39;;;;;;;5.60;3.40;;;23.10;99.90;;;;;;5034401;28;20234;-72
2021/07/08 07:29:05;;;;;;;4.13;3.55;;;23.10;99.90;;;;;;5055182;28;20189;-71
2021/07/08 07:31:30;;;;;;;4.93;3.70;;;23.20;99.90;;;;;;5054114;28;20183;-71
2021/07/08 07:33:56;;;;;;;3.95;3.65;;;23.20;99.90;;;;;;5052943;28;20203;-70
2021/07/08 07:36:22;;;;;;;5.68;3.80;;;23.30;99.90;;;;;;5040175;28;20190;-71
2021/07/08 07:38:47;;;;;;;4.13;3.72;;;23.30;99.90;;;;;;5055769;28;20268;-71
2021/07/08 07:41:13;;;;;;;5.80;4.10;;;23.50;99.90;;;;;;5040288;28;20255;-71
2021/07/08 07:43:39;;;;;;;5.38;3.90;;;23.60;99.90;;;;;;5054322;28;20541;-72
2021/07/08 07:46:04;;;;;;;4.13;3.60;;;23.80;99.90;;;;;;5040778;28;20707;-72
2021/07/08 07:48:30;;;;;;;8.07;5.38;;;23.80;99.90;;;;;;5053475;28;20259;-73
2021/07/08 07:50:56;;;;;;;4.88;3.63;;;23.60;99.90;;;;;;5052341;28;20172;-72
2021/07/08 07:53:21;;;;;;;3.72;3.42;;;23.80;99.90;;;;;;5071254;22;20587;-74
2021/07/08 07:55:49;;;;;;;3.72;3.22;;;23.70;99.90;;;;;;5066825;28;20334;-72
2021/07/08 07:58:15;;;;;;;3.67;3.35;;;23.50;99.90;;;;;;5072439;28;20551;-73
2021/07/08 08:00:40;;;;;;;3.70;3.40;;;23.20;99.90;;;;;;5075255;28;20258;-73
2021/07/08 08:03:06;;;;;;;10.13;5.97;;;22.90;99.90;;;;;;5085613;28;20208;-73
2021/07/08 08:10:42;;;;;;;4.93;3.45;;;22.90;99.90;;;;;;5053587;28;20221;-72
2021/07/08 08:13:10;;;;;;;3.80;3.50;;;23.10;99.90;;;;;;5068041;28;20294;-72
2021/07/08 08:15:35;;;;;;;3.88;3.30;;;23.40;99.90;;;;;;5068325;28;20203;-73
2021/07/08 08:18:01;;;;;;;4.32;3.60;;;23.40;99.90;;;;;;5053693;28;20173;-73
2021/07/08 08:20:27;;;;;;;4.50;3.15;;;23.50;99.90;;;;;;5045195;28;20182;-72
2021/07/08 08:22:53;;;;;;;4.60;3.90;;;24.00;99.90;;;;;;5073414;28;20171;-72
2021/07/08 08:25:18;;;;;;;5.43;3.92;;;24.00;99.90;;;;;;5073079;28;20222;-72
2021/07/08 08:27:44;;;;;;;4.07;3.42;;;23.80;99.90;;;;;;5072760;28;20317;-72
2021/07/08 08:30:12;;;;;;;4.47;4.03;;;23.50;99.90;;;;;;5074943;28;20203;-72
2021/07/08 08:32:38;;;;;;;9.00;3.90;;;23.30;99.90;;;;;;5074186;28;20209;-72
2021/07/08 08:35:04;;;;;;;5.28;4.10;;;23.50;99.90;;;;;;5075209;28;20237;-72
2021/07/08 08:37:30;;;;;;;5.55;4.05;;;23.50;99.90;;;;;;5072652;28;20184;-72
2021/07/08 08:39:55;;;;;;;5.22;3.50;;;23.60;99.90;;;;;;5075117;28;20186;-72
2021/07/08 08:42:24;;;;;;;4.00;3.70;;;23.70;99.90;;;;;;5072147;28;20240;-72
2021/07/08 08:44:50;;;;;;;4.78;3.75;;;23.90;99.90;;;;;;5057308;28;20233;-72
2021/07/08 08:47:15;;;;;;;4.60;3.78;;;24.10;99.90;;;;;;5073541;28;20188;-73
2021/07/08 08:49:42;;;;;;;5.00;4.43;;;24.30;99.90;;;;;;5075130;28;20180;-72
2021/07/08 08:52:10;;;;;;;6.22;4.13;;;24.10;99.90;;;;;;5061999;28;20193;-73
2021/07/08 08:54:37;;;;;;;4.72;4.03;;;24.00;99.90;;;;;;5070300;28;20215;-72
2021/07/08 08:57:03;;;;;;;4.72;3.72;;;24.30;99.90;;;;;;5092869;28;20171;-72
2021/07/08 08:59:29;;;;;;;5.85;3.90;;;24.30;99.90;;;;;;5089383;28;20219;-72
2021/07/08 09:02:18;;;;;;;3.75;3.38;;;24.40;99.90;;;;;;5095532;28;20189;-72
2021/07/08 09:04:45;;;;;;;4.15;3.72;;;24.50;99.90;;;;;;5097400;28;20215;-72
2021/07/08 09:07:30;;;;;;;5.65;4.00;;;24.50;99.90;;;;;;5089805;28;20169;-72
2021/07/08 09:10:00;;;;;;;8.32;4.03;;;24.40;99.90;;;;;;5094724;28;20184;-72
2021/07/08 09:12:27;;;;;;;8.30;4.55;;;24.60;99.90;;;;;;5093214;28;20188;-72
2021/07/08 09:15:12;;;;;;;3.80;3.50;;;25.00;99.90;;;;;;5078631;28;20196;-72
2021/07/08 09:17:42;;;;;;;5.10;3.97;;;25.40;99.90;;;;;;5074615;28;20621;-72
2021/07/08 09:20:13;;;;;;;7.22;3.90;;;25.50;99.90;;;;;;5074872;28;20531;-72
2021/07/08 09:22:39;;;;;;;3.33;3.03;;;25.40;99.90;;;;;;5059466;28;20527;-72
2021/07/08 09:25:21;;;;;;;3.30;3.00;;;25.70;99.90;;;;;;5078089;28;20200;-72
2021/07/08 09:27:48;;;;;;;5.72;3.38;;;25.50;99.90;;;;;;5084519;28;20190;-72
2021/07/08 09:30:24;;;;;;;5.07;2.92;;;25.60;99.90;;;;;;5083514;28;20165;-72
2021/07/08 09:32:50;;;;;;;6.68;3.92;;;25.70;99.90;;;;;;5044212;28;20257;-72
2021/07/08 09:35:31;;;;;;;4.50;2.92;;;25.70;99.90;;;;;;5033477;28;20229;-72
2021/07/08 09:38:09;;;;;;;3.10;2.90;;;25.50;99.90;;;;;;5065622;28;20172;-72
2021/07/08 09:40:35;;;;;;;4.28;3.03;;;25.60;99.90;;;;;;5070548;28;20624;-72
2021/07/08 09:43:01;;;;;;;4.45;2.92;;;25.70;99.90;;;;;;5070001;28;20204;-72
2021/07/08 09:45:26;;;;;;;3.10;2.85;;;25.10;99.90;;;;;;5063898;28;20210;-71
2021/07/08 09:48:07;;;;;;;3.42;3.10;;;24.80;99.90;;;;;;5050848;28;20209;-72
2021/07/08 09:50:32;;;;;;;3.38;2.95;;;24.50;99.90;;;;;;5061904;28;20185;-72
2021/07/08 09:53:15;;;;;;;3.60;2.92;;;24.40;99.90;;;;;;5069603;28;20212;-72
2021/07/08 09:58:30;;;;;;;5.05;3.08;;;25.30;99.90;;;;;;5067136;28;20783;-73
2021/07/08 10:00:56;;;;;;;3.75;3.20;;;25.40;99.90;;;;;;5067556;28;20226;-73
2021/07/08 10:03:22;;;;;;;3.88;3.50;;;25.40;99.90;;;;;;5063941;28;20185;-75
2021/07/08 10:05:47;;;;;;;5.50;3.45;;;25.60;99.90;;;;;;5052716;28;20224;-73
2021/07/08 10:08:13;;;;;;;5.25;3.00;;;25.50;99.90;;;;;;5069962;28;20257;-72
2021/07/08 10:10:41;;;;;;;3.38;2.78;;;26.00;99.90;;;;;;5073329;28;20176;-73
2021/07/08 10:13:08;;;;;;;6.13;3.30;;;25.70;99.90;;;;;;5068152;28;20222;-75
2021/07/08 10:15:40;;;;;;;3.50;2.97;;;25.70;99.90;;;;;;5065823;28;20201;-73
2021/07/08 10:18:07;;;;;;;3.40;3.10;;;25.60;99.90;;;;;;5049863;28;20536;-73
2021/07/08 10:20:33;;;;;;;3.65;3.35;;;25.50;99.90;;;;;;5049258;28;20181;-73
2021/07/08 10:22:58;;;;;;;3.08;2.80;;;25.50;99.90;;;;;;5059739;28;20633;-71
2021/07/08 10:25:24;;;;;;;3.13;2.63;;;25.90;99.90;;;;;;5033534;28;20217;-73
2021/07/08 10:27:51;;;;;;;5.30;2.92;;;26.00;99.90;;;;;;5065986;28;20207;-73
2021/07/08 10:30:20;;;;;;;5.40;3.20;;;25.90;99.90;;;;;;5069541;28;20169;-73
2021/07/08 10:32:52;;;;;;;3.00;2.38;;;25.90;99.90;;;;;;5069814;28;20587;-73
2021/07/08 10:35:36;;;;;;;5.82;2.80;;;26.40;99.90;;;;;;5070705;28;20352;-73
2021/07/08 10:38:27;;;;;;;4.05;2.70;;;26.10;99.90;;;;;;5070842;28;20637;-73
2021/07/08 10:40:57;;;;;;;5.03;3.10;;;26.00;99.90;;;;;;5070595;28;20222;-73
2021/07/08 10:43:46;;;;;;;5.70;3.00;;;26.00;99.90;;;;;;5073847;28;20173;-73
2021/07/08 10:46:14;;;;;;;9.23;3.88;;;25.80;99.90;;;;;;5026505;28;20668;-73
2021/07/08 10:48:43;;;;;;;3.97;2.95;;;25.90;99.90;;;;;;5074031;28;20569;-73
2021/07/08 10:51:53;;;;;;;3.50;3.20;;;25.60;99.90;;;;;;5072525;28;20230;-75
2021/07/08 10:54:24;;;;;;;3.33;3.00;;;26.00;99.90;;;;;;5072996;28;20200;-72
2021/07/08 10:56:50;;;;;;;3.60;2.90;;;25.90;99.90;;;;;;5073404;28;20653;-72
2021/07/08 10:59:15;;;;;;;4.80;3.10;;;25.80;99.90;;;;;;5073050;28;20219;-72
2021/07/08 11:01:43;;;;;;;4.35;3.50;;;26.10;99.90;;;;;;5054729;28;20172;-72
2021/07/08 11:04:10;;;;;;;3.88;3.58;;;26.00;99.90;;;;;;5055467;28;20646;-72
2021/07/08 11:06:38;;;;;;;4.85;3.30;;;25.70;99.90;;;;;;5072815;28;20668;-72
2021/07/08 11:09:19;;;;;;;5.63;3.40;;;25.40;99.90;;;;;;5073294;28;20226;-73
2021/07/08 11:11:48;;;;;;;5.22;3.40;;;25.00;99.90;;;;;;5052211;28;20193;-72
2021/07/08 11:14:16;;;;;;;3.67;3.38;;;25.10;99.90;;;;;;5052366;28;20201;-71
2021/07/08 11:16:47;;;;;;;5.63;3.35;;;25.40;99.90;;;;;;5053041;28;20166;-72
2021/07/08 11:19:13;;;;;;;3.38;2.97;;;25.60;99.90;;;;;;5052253;28;20258;-72
2021/07/08 11:22:03;;;;;;;3.85;3.08;;;25.70;99.90;;;;;;5050283;28;20219;-71
2021/07/08 11:24:40;;;;;;;4.95;3.03;;;25.80;99.90;;;;;;5051878;28;20198;-72
2021/07/08 11:27:08;;;;;;;3.45;2.65;;;25.70;99.90;;;;;;5049049;28;20252;-71
2021/07/08 11:29:45;;;;;;;3.22;2.92;;;25.40;99.90;;;;;;5052540;28;20211;-71
2021/07/08 11:32:40;;;;;;;6.22;3.45;;;25.30;99.90;;;;;;5047717;28;20498;-72
2021/07/08 11:35:07;;;;;;;3.80;3.50;;;25.40;99.90;;;;;;5042354;28;20718;-71
2021/07/08 11:37:44;;;;;;;4.70;2.60;;;25.90;99.90;;;;;;5047380;28;20656;-71
2021/07/08 11:40:15;;;;;;;4.80;2.78;;;25.90;99.90;;;;;;5050601;28;20174;-71
2021/07/08 11:42:43;;;;;;;4.60;2.90;;;26.30;99.90;;;;;;5051154;28;20180;-72
2021/07/08 11:45:16;;;;;;;3.00;2.70;;;26.40;99.90;;;;;;5051765;28;20193;-71
2021/07/08 11:47:45;;;;;;;3.63;2.67;;;26.30;99.90;;;;;;5051715;28;20204;-71
2021/07/08 11:50:18;;;;;;;4.20;2.50;;;26.20;99.90;;;;;;5051679;28;20192;-70
2021/07/08 11:52:45;;;;;;;4.07;2.97;;;26.40;99.90;;;;;;5050966;28;20578;-70
2021/07/08 11:55:11;;;;;;;5.57;2.42;;;25.80;99.90;;;;;;5051170;28;20246;-70
2021/07/08 11:57:51;;;;;;;5.20;2.45;;;25.90;99.90;;;;;;5052373;28;20170;-70
2021/07/08 12:00:30;;;;;;;4.57;2.80;;;26.40;99.90;;;;;;5051408;28;20177;-70
2021/07/08 12:02:57;;;;;;;3.15;2.50;;;26.30;99.90;;;;;;5034358;28;20245;-70
2021/07/08 12:05:23;;;;;;;2.60;2.40;;;25.90;99.90;;;;;;5051167;28;20201;-70
2021/07/08 12:08:02;;;;;;;2.75;2.35;;;26.20;99.90;;;;;;5051669;28;20256;-70
2021/07/08 12:10:32;;;;;;;3.67;2.92;;;26.10;99.90;;;;;;5051118;28;20671;-70
2021/07/08 12:12:58;;;;;;;4.20;2.63;;;25.90;99.90;;;;;;5051821;28;20239;-70
2021/07/08 12:15:25;;;;;;;4.20;2.70;;;25.80;99.90;;;;;;5051835;28;20201;-70
2021/07/08 12:17:59;;;;;;;2.92;2.33;;;25.80;99.90;;;;;;5051694;28;20169;-70
2021/07/08 12:20:28;;;;;;;5.07;2.55;;;25.50;99.90;;;;;;5048591;28;20604;-71
2021/07/08 12:23:02;;;;;;;5.88;2.60;;;25.40;99.90;;;;;;5052834;28;20356;-71
2021/07/08 12:25:30;;;;;;;2.72;2.30;;;24.90;99.90;;;;;;5052135;28;20728;-71
2021/07/08 12:27:56;;;;;;;3.85;2.40;;;24.80;99.90;;;;;;5051882;28;20502;-70
2021/07/08 12:30:27;;;;;;;4.07;2.50;;;24.80;99.90;;;;;;5031367;28;20614;-70
2021/07/08 12:33:05;;;;;;;5.15;2.63;;;24.40;99.90;;;;;;5036427;28;20275;-71
2021/07/08 12:35:39;;;;;;;3.08;2.45;;;24.50;99.90;;;;;;5050470;28;20197;-71
2021/07/08 12:38:05;;;;;;;2.67;2.42;;;24.60;99.90;;;;;;5051619;28;20260;-71
2021/07/08 12:40:30;;;;;;;4.72;2.90;;;24.50;99.90;;;;;;5050843;28;20284;-71
2021/07/08 12:42:58;;;;;;;3.92;2.70;;;24.40;99.90;;;;;;5052325;28;20183;-71
2021/07/08 12:45:24;;;;;;;2.55;2.10;;;24.40;99.90;;;;;;5051002;28;20211;-71
2021/07/08 12:47:53;;;;;;;4.38;2.60;;;24.20;99.90;;;;;;5052133;28;20183;-71
2021/07/08 12:50:27;;;;;;;3.88;2.60;;;24.10;99.90;;;;;;5051413;28;20180;-71
2021/07/08 12:52:58;;;;;;;4.22;2.75;;;24.20;99.90;;;;;;5044033;28;20196;-70
2021/07/08 12:55:34;;;;;;;4.47;2.55;;;24.10;99.90;;;;;;5073723;28;20197;-69
2021/07/08 12:58:03;;;;;;;3.38;2.55;;;24.00;99.90;;;;;;5075213;28;20183;-69
2021/07/08 13:00:33;;;;;;;3.55;2.35;;;23.70;99.90;;;;;;5075333;28;20255;-69
2021/07/08 13:02:59;;;;;;;2.30;2.10;;;23.50;99.90;;;;;;5076092;28;20160;-70
2021/07/08 13:05:45;;;;;;;4.72;2.60;;;23.20;99.90;;;;;;5072300;28;20198;-71
2021/07/08 13:08:12;;;;;;;3.03;2.42;;;23.10;99.90;;;;;;5075526;28;20171;-70
2021/07/08 13:10:42;;;;;;;4.20;2.50;;;23.20;99.90;;;;;;5068362;28;21346;-71